Time;durP1;ratioP1;P1;durP2;ratioP2;P2;SDS_P1;SDS_P2;PMS_P1;PMS_P2;Temp;Humidity;BMP_temperature;BMP_pressure;BME280_temperature;BME280_humidity;BME280_pressure;Samples;Min_cycle;Max_cycle;Signal;HPM_P1;HPM_P2
2021/03/20 00:02:13;;;;;;;10.40;7.73;;;0.30;22.80;;;;;;4857400;28;20202;-74
2021/03/20 00:04:35;;;;;;;12.10;9.07;;;0.10;24.40;;;;;;4860930;28;20654;-74
2021/03/20 00:06:59;;;;;;;10.73;8.70;;;0.00;25.00;;;;;;4868171;28;21013;-76
2021/03/20 00:09:25;;;;;;;10.53;8.40;;;0.00;27.50;;;;;;4878585;28;20239;-74
2021/03/20 00:11:48;;;;;;;9.73;7.93;;;-0.10;28.70;;;;;;4879841;28;20715;-76
2021/03/20 00:14:13;;;;;;;9.20;7.60;;;-0.10;31.00;;;;;;4870026;28;20656;-75
2021/03/20 00:16:35;;;;;;;11.60;7.90;;;0.00;31.60;;;;;;4852258;28;20615;-77
2021/03/20 00:18:57;;;;;;;8.40;6.60;;;-0.20;34.20;;;;;;4846973;28;20243;-79
2021/03/20 00:21:19;;;;;;;8.40;6.80;;;-0.30;30.50;;;;;;4827444;28;20210;-76
2021/03/20 00:23:42;;;;;;;8.73;6.50;;;-0.20;27.60;;;;;;4861858;28;20656;-75
2021/03/20 00:26:05;;;;;;;7.83;6.37;;;-0.30;20.00;;;;;;4861371;28;20201;-76
2021/03/20 00:28:30;;;;;;;8.33;6.43;;;-0.30;16.40;;;;;;4860386;28;20712;-80
2021/03/20 00:30:55;;;;;;;7.97;6.20;;;-0.40;16.50;;;;;;4861565;28;20709;-76
2021/03/20 00:33:18;;;;;;;7.83;6.63;;;-0.40;16.00;;;;;;4870807;28;20833;-76
2021/03/20 00:35:40;;;;;;;8.33;6.33;;;-0.40;5.30;;;;;;4850277;28;20217;-77
2021/03/20 00:38:02;;;;;;;8.17;6.63;;;-0.40;4.90;;;;;;4875657;28;20642;-80
2021/03/20 00:40:28;;;;;;;7.30;6.03;;;-0.50;8.40;;;;;;4874731;28;20653;-78
2021/03/20 00:42:51;;;;;;;6.83;6.10;;;-0.50;10.90;;;;;;4887731;28;20603;-75
2021/03/20 00:45:15;;;;;;;7.40;5.53;;;-0.50;6.60;;;;;;4873364;28;20204;-76
2021/03/20 00:47:38;;;;;;;7.27;6.10;;;-0.50;1.30;;;;;;4859318;28;20712;-76
2021/03/20 00:50:00;;;;;;;7.70;6.33;;;-0.50;1.00;;;;;;4874888;28;20649;-75
2021/03/20 00:52:22;;;;;;;7.73;6.47;;;-0.50;1.00;;;;;;4875487;28;21033;-78
2021/03/20 00:54:44;;;;;;;7.97;6.17;;;-0.50;1.00;;;;;;4893022;28;20729;-77
2021/03/20 00:57:08;;;;;;;8.73;6.20;;;-0.50;1.00;;;;;;4854131;28;20198;-78
2021/03/20 00:59:30;;;;;;;6.97;5.90;;;-0.60;1.00;;;;;;4822839;28;20674;-76
2021/03/20 01:01:52;;;;;;;7.63;6.47;;;-0.60;1.00;;;;;;4857267;28;21026;-77
2021/03/20 01:04:14;;;;;;;8.33;6.40;;;-0.70;1.00;;;;;;4877727;28;20630;-80
2021/03/20 01:06:36;;;;;;;7.73;6.67;;;-0.60;1.00;;;;;;4874648;28;20689;-75
2021/03/20 01:09:00;;;;;;;8.07;6.90;;;-0.60;1.00;;;;;;4895938;28;20192;-75
2021/03/20 01:11:24;;;;;;;8.90;7.40;;;-0.60;1.00;;;;;;4877533;28;20662;-75
2021/03/20 01:13:47;;;;;;;9.03;7.23;;;-0.60;1.00;;;;;;4880110;28;20185;-76
2021/03/20 01:16:11;;;;;;;9.77;7.67;;;-0.60;1.30;;;;;;4896631;28;21153;-75
2021/03/20 01:18:33;;;;;;;10.20;7.97;;;-0.60;5.50;;;;;;4877477;28;20613;-74
2021/03/20 01:20:55;;;;;;;9.67;7.93;;;-0.60;9.90;;;;;;4878554;28;20201;-76
2021/03/20 01:23:17;;;;;;;9.43;6.97;;;-0.60;5.60;;;;;;4897584;28;20622;-76
2021/03/20 01:25:39;;;;;;;9.00;7.03;;;-0.60;2.90;;;;;;4896231;28;20621;-83
2021/03/20 01:28:01;;;;;;;8.47;6.53;;;-0.70;1.00;;;;;;4862676;28;20639;-78
2021/03/20 01:30:27;;;;;;;7.90;6.60;;;-0.70;1.00;;;;;;4878439;28;20587;-79
2021/03/20 01:32:49;;;;;;;7.37;6.37;;;-0.70;1.00;;;;;;4890138;28;21003;-81
2021/03/20 01:35:11;;;;;;;7.70;5.97;;;-0.80;1.00;;;;;;4847629;28;20632;-81
2021/03/20 01:37:33;;;;;;;7.10;5.17;;;-0.80;1.00;;;;;;4843729;28;20636;-77
2021/03/20 01:39:56;;;;;;;6.50;5.07;;;-0.80;1.00;;;;;;4862061;28;20657;-82
2021/03/20 01:42:18;;;;;;;6.87;5.07;;;-0.90;1.00;;;;;;4860553;28;20681;-75
2021/03/20 01:44:40;;;;;;;6.30;4.70;;;-1.00;1.00;;;;;;4857902;28;20252;-82
2021/03/20 01:47:09;;;;;;;4.97;4.40;;;-1.00;1.00;;;;;;4893589;28;20656;-83
2021/03/20 01:49:35;;;;;;;5.80;4.60;;;-1.00;1.00;;;;;;4888580;28;20668;-80
2021/03/20 01:52:16;;;;;;;4.67;3.83;;;-1.00;1.00;;;;;;4872553;28;21111;-78
2021/03/20 01:54:45;;;;;;;6.43;4.70;;;-1.10;1.00;;;;;;4862517;28;20575;-78
2021/03/20 01:57:07;;;;;;;6.90;4.53;;;-1.10;1.00;;;;;;4855783;28;20627;-80
2021/03/20 01:59:30;;;;;;;6.37;4.73;;;-1.10;1.00;;;;;;4859663;28;20672;-79
2021/03/20 02:01:52;;;;;;;6.73;4.50;;;-1.20;1.00;;;;;;4871881;28;20618;-77
2021/03/20 02:04:15;;;;;;;7.37;4.73;;;-1.20;1.00;;;;;;4878939;28;20648;-79
2021/03/20 02:06:38;;;;;;;6.63;4.30;;;-1.30;1.00;;;;;;4849514;28;20666;-81
2021/03/20 02:09:03;;;;;;;7.57;4.27;;;-1.20;1.00;;;;;;4860109;28;20654;-77
2021/03/20 02:11:30;;;;;;;6.63;4.40;;;-1.30;1.00;;;;;;4867070;28;20716;-77
2021/03/20 02:13:59;;;;;;;5.90;4.50;;;-1.30;1.00;;;;;;4859963;28;20685;-82
2021/03/20 02:16:28;;;;;;;6.20;4.80;;;-1.30;1.00;;;;;;4870779;28;20701;-82
2021/03/20 02:18:58;;;;;;;6.27;4.57;;;-1.40;1.00;;;;;;4860975;28;20644;-83
2021/03/20 02:21:25;;;;;;;5.57;4.30;;;-1.50;5.30;;;;;;4873785;28;21203;-81
2021/03/20 02:24:27;;;;;;;6.07;4.23;;;-1.50;12.40;;;;;;4869083;28;21106;-78
2021/03/20 02:27:33;;;;;;;7.17;4.23;;;-1.50;15.00;;;;;;4856624;28;20670;-78
2021/03/20 02:30:33;;;;;;;5.67;3.87;;;-1.60;16.70;;;;;;4828041;28;20629;-82
2021/03/20 02:33:19;;;;;;;6.20;3.93;;;-1.60;21.60;;;;;;4891264;28;20622;-82
2021/03/20 02:35:48;;;;;;;5.77;4.20;;;-1.70;20.60;;;;;;4865887;28;21316;-77
2021/03/20 02:38:23;;;;;;;6.63;3.70;;;-1.70;18.50;;;;;;4874456;28;20656;-83
2021/03/20 02:40:55;;;;;;;4.57;3.60;;;-1.70;11.90;;;;;;4860472;28;20631;-74
2021/03/20 02:43:26;;;;;;;4.57;3.30;;;-1.80;3.60;;;;;;4862056;28;20657;-76
2021/03/20 02:45:53;;;;;;;5.13;3.33;;;-1.90;1.00;;;;;;4873238;28;20618;-75
2021/03/20 02:48:22;;;;;;;3.73;2.90;;;-2.00;1.00;;;;;;4859490;28;21222;-79
2021/03/20 02:50:51;;;;;;;5.53;3.17;;;-2.00;1.00;;;;;;4875272;28;20646;-82
2021/03/20 02:53:19;;;;;;;3.07;2.60;;;-2.20;1.00;;;;;;4885045;28;20719;-81
2021/03/20 02:55:45;;;;;;;4.07;3.00;;;-2.30;1.00;;;;;;4876930;28;20614;-84
2021/03/20 02:58:11;;;;;;;4.03;2.77;;;-2.40;1.00;;;;;;4878264;28;20645;-79
2021/03/20 03:00:38;;;;;;;5.20;3.30;;;-2.50;1.00;;;;;;4873766;28;20676;-76
2021/03/20 03:03:03;;;;;;;4.53;3.10;;;-2.60;1.00;;;;;;4887969;28;20671;-82
2021/03/20 03:05:31;;;;;;;6.47;3.40;;;-2.60;1.00;;;;;;4872735;28;21100;-81
2021/03/20 03:07:57;;;;;;;6.90;2.90;;;-2.60;1.00;;;;;;4876918;28;20599;-84
2021/03/20 03:10:24;;;;;;;4.50;3.10;;;-2.70;1.00;;;;;;4890733;28;20981;-84
2021/03/20 03:12:50;;;;;;;3.50;2.73;;;-2.70;1.00;;;;;;4878402;28;20696;-82
2021/03/20 03:15:16;;;;;;;4.10;3.20;;;-2.80;1.00;;;;;;4843511;28;20628;-82
2021/03/20 03:17:42;;;;;;;5.90;3.33;;;-2.90;1.00;;;;;;4886865;28;20611;-83
2021/03/20 03:20:10;;;;;;;6.17;3.23;;;-3.00;56.80;;;;;;4858267;28;20701;-75
2021/03/20 03:22:38;;;;;;;4.77;3.40;;;-3.10;1.00;;;;;;4845108;28;20619;-78
2021/03/20 03:25:06;;;;;;;4.67;3.33;;;-3.20;1.00;;;;;;4858898;28;20650;-77
2021/03/20 03:27:31;;;;;;;7.40;3.53;;;-3.30;1.00;;;;;;4886106;28;20613;-77
2021/03/20 03:29:54;;;;;;;6.10;3.80;;;-3.40;1.00;;;;;;4893653;28;20617;-74
2021/03/20 03:32:20;;;;;;;5.60;3.67;;;-3.50;1.00;;;;;;4877278;28;20657;-74
2021/03/20 03:34:50;;;;;;;7.63;3.70;;;-3.50;1.00;;;;;;4866651;28;20631;-82
2021/03/20 03:37:16;;;;;;;8.40;3.20;;;-3.60;1.00;;;;;;4874409;28;20654;-83
2021/03/20 03:39:45;;;;;;;5.50;3.47;;;-3.70;1.00;;;;;;4882686;28;20634;-82
2021/03/20 03:42:11;;;;;;;6.23;3.87;;;-3.80;28.70;;;;;;4846587;28;21278;-80
2021/03/20 03:44:34;;;;;;;6.87;4.17;;;-3.90;99.90;;;;;;4875764;28;21149;-77
2021/03/20 03:46:56;;;;;;;11.80;6.00;;;-3.90;99.90;;;;;;4880306;28;20610;-83
2021/03/20 03:49:23;;;;;;;7.83;5.13;;;-4.00;99.90;;;;;;4874295;28;20631;-77
2021/03/20 03:51:45;;;;;;;7.77;4.10;;;-4.10;99.90;;;;;;4883294;28;21384;-84
2021/03/20 03:54:08;;;;;;;7.30;4.53;;;-4.10;99.90;;;;;;4859053;28;20705;-81
2021/03/20 03:56:57;;;;;;;7.53;4.13;;;-4.20;99.90;;;;;;4867124;28;20623;-83
2021/03/20 03:59:21;;;;;;;7.70;3.97;;;-4.30;99.90;;;;;;4856018;28;20616;-82
2021/03/20 04:01:51;;;;;;;8.77;4.83;;;-4.30;23.10;;;;;;4867475;28;20627;-82
2021/03/20 04:04:27;;;;;;;9.57;4.67;;;-4.30;1.00;;;;;;4877491;28;21061;-81
2021/03/20 04:07:11;;;;;;;10.90;4.63;;;-4.40;1.00;;;;;;4874987;28;21026;-83
2021/03/20 04:09:44;;;;;;;8.90;5.17;;;-4.40;1.00;;;;;;4872073;28;20681;-80
2021/03/20 04:12:14;;;;;;;7.43;4.63;;;-4.50;1.00;;;;;;4882393;28;20668;-85
2021/03/20 04:14:43;;;;;;;6.60;4.83;;;-4.60;1.00;;;;;;4875199;28;21002;-80
2021/03/20 04:17:16;;;;;;;8.10;4.40;;;-4.60;1.00;;;;;;4874738;28;21209;-84
2021/03/20 04:19:50;;;;;;;7.43;4.40;;;-4.60;1.00;;;;;;4859609;28;20685;-82
2021/03/20 04:22:19;;;;;;;10.77;5.07;;;-4.60;1.00;;;;;;4859666;28;20713;-83
2021/03/20 04:24:44;;;;;;;8.40;5.33;;;-4.70;1.00;;;;;;4890779;28;20986;-83
2021/03/20 04:27:10;;;;;;;6.73;4.30;;;-4.70;1.00;;;;;;4859947;28;21420;-83
2021/03/20 04:29:38;;;;;;;6.10;4.00;;;-4.80;1.00;;;;;;4875949;28;20648;-79
2021/03/20 04:32:05;;;;;;;7.00;3.93;;;-4.70;1.00;;;;;;4882257;28;20657;-84
2021/03/20 04:34:33;;;;;;;6.93;3.70;;;-4.70;1.00;;;;;;4841862;28;20668;-85
2021/03/20 04:36:58;;;;;;;6.57;4.70;;;-4.70;1.00;;;;;;4891179;28;20702;-83
2021/03/20 04:39:24;;;;;;;6.97;4.57;;;-4.60;1.00;;;;;;4866117;28;20662;-84
2021/03/20 04:41:47;;;;;;;9.30;4.93;;;-4.60;1.00;;;;;;4855386;28;20670;-83
2021/03/20 04:44:11;;;;;;;7.07;4.00;;;-4.50;1.00;;;;;;4868093;28;20631;-84
2021/03/20 04:46:35;;;;;;;7.37;3.87;;;-4.50;1.00;;;;;;4844701;28;21179;-78
2021/03/20 04:49:07;;;;;;;6.43;3.77;;;-4.40;1.00;;;;;;4867950;28;20658;-76
2021/03/20 04:51:38;;;;;;;5.97;4.00;;;-4.30;1.00;;;;;;4847460;28;20647;-76
2021/03/20 04:54:07;;;;;;;6.43;3.57;;;-4.20;1.00;;;;;;4879940;28;20661;-78
2021/03/20 04:56:31;;;;;;;7.80;3.50;;;-4.20;1.00;;;;;;4880306;28;20680;-76
2021/03/20 04:59:00;;;;;;;6.00;3.60;;;-4.10;1.00;;;;;;4888999;28;21236;-76
2021/03/20 05:01:27;;;;;;;7.87;4.00;;;-4.10;99.90;;;;;;4835038;28;20705;-78
2021/03/20 05:03:51;;;;;;;6.57;4.40;;;-4.00;99.90;;;;;;4897742;28;21129;-77
2021/03/20 05:06:16;;;;;;;7.27;4.30;;;-4.00;99.90;;;;;;4896867;28;20609;-76
2021/03/20 05:08:41;;;;;;;8.20;4.33;;;-3.90;99.90;;;;;;4863369;28;20967;-78
2021/03/20 05:11:10;;;;;;;7.47;4.93;;;-3.90;99.90;;;;;;4880159;28;20622;-76
2021/03/20 05:13:38;;;;;;;9.80;4.83;;;-3.80;77.70;;;;;;4880585;28;20692;-83
2021/03/20 05:16:23;;;;;;;11.50;6.50;;;-3.80;17.40;;;;;;4885368;28;20640;-83
2021/03/20 05:18:49;;;;;;;16.07;7.30;;;-3.80;1.00;;;;;;4864299;28;20733;-83
2021/03/20 05:21:12;;;;;;;7.47;4.60;;;-3.70;1.00;;;;;;4880601;28;20672;-85
2021/03/20 05:23:34;;;;;;;10.20;4.83;;;-3.70;1.00;;;;;;4879447;28;20666;-77
2021/03/20 05:25:56;;;;;;;10.60;4.53;;;-3.60;1.00;;;;;;4845727;28;21210;-75
2021/03/20 05:28:18;;;;;;;8.10;4.63;;;-3.60;1.00;;;;;;4866765;28;20649;-75
2021/03/20 05:30:40;;;;;;;10.57;4.33;;;-3.60;1.00;;;;;;4873266;28;20744;-76
2021/03/20 05:33:02;;;;;;;7.47;3.90;;;-3.50;1.00;;;;;;4894936;28;20680;-75
2021/03/20 05:35:27;;;;;;;8.90;4.80;;;-3.50;1.00;;;;;;4862477;28;21250;-76
2021/03/20 05:37:49;;;;;;;9.53;5.33;;;-3.40;1.00;;;;;;4895922;28;21247;-76
2021/03/20 05:40:22;;;;;;;8.80;4.80;;;-3.30;1.00;;;;;;4883674;28;20640;-78
2021/03/20 05:43:09;;;;;;;14.13;7.13;;;-3.20;1.00;;;;;;4869460;28;21056;-83
2021/03/20 05:45:36;;;;;;;17.67;9.17;;;-3.20;1.00;;;;;;4858694;28;21409;-82
2021/03/20 05:48:03;;;;;;;22.90;11.70;;;-3.10;1.00;;;;;;4884020;28;20606;-85
2021/03/20 05:50:40;;;;;;;11.57;5.90;;;-3.00;1.00;;;;;;4896617;28;20638;-85
2021/03/20 05:53:44;;;;;;;9.83;5.40;;;-2.90;1.00;;;;;;4879717;28;20621;-81
2021/03/20 05:56:14;;;;;;;23.93;11.57;;;-2.80;1.00;;;;;;4882278;28;21026;-85
2021/03/20 05:59:07;;;;;;;11.73;6.10;;;-2.70;1.00;;;;;;4862470;28;20685;-84
2021/03/20 06:01:42;;;;;;;9.83;6.10;;;-2.70;1.00;;;;;;4834793;28;21064;-81
2021/03/20 06:04:37;;;;;;;9.53;4.90;;;-2.60;99.90;;;;;;4879648;28;20657;-84
2021/03/20 06:07:39;;;;;;;12.53;6.80;;;-2.50;99.90;;;;;;4872071;28;20666;-84
2021/03/20 06:10:15;;;;;;;10.27;5.60;;;-2.30;99.90;;;;;;4889983;28;21118;-82
2021/03/20 06:12:50;;;;;;;9.30;5.47;;;-2.20;99.90;;;;;;4878952;28;20664;-85
2021/03/20 06:15:15;;;;;;;11.60;5.80;;;-2.10;99.90;;;;;;4887218;28;20590;-83
2021/03/20 06:18:08;;;;;;;8.33;4.63;;;-2.00;99.90;;;;;;4890473;28;20671;-80
2021/03/20 06:20:36;;;;;;;8.97;5.47;;;-1.80;99.90;;;;;;4893766;28;21162;-84
2021/03/20 06:23:34;;;;;;;9.10;5.00;;;-1.70;99.90;;;;;;4876995;28;21034;-83
2021/03/20 06:26:04;;;;;;;10.13;4.63;;;-1.50;99.90;;;;;;4875476;28;20692;-84
2021/03/20 06:28:31;;;;;;;8.50;4.57;;;-1.40;99.90;;;;;;4875606;28;20619;-84
2021/03/20 06:30:58;;;;;;;8.37;4.93;;;-1.40;66.70;;;;;;4879534;28;20594;-84
2021/03/20 06:33:26;;;;;;;8.33;4.57;;;-1.40;1.00;;;;;;4877816;28;21233;-83
2021/03/20 06:35:52;;;;;;;8.60;4.70;;;-1.50;1.00;;;;;;4878092;28;21057;-80
2021/03/20 06:38:25;;;;;;;7.33;4.23;;;-1.50;1.00;;;;;;4878775;28;20666;-83
2021/03/20 06:40:54;;;;;;;7.90;4.50;;;-1.60;1.00;;;;;;4877293;28;20630;-77
2021/03/20 06:43:19;;;;;;;12.10;6.83;;;-1.60;1.00;;;;;;4872384;28;20759;-83
2021/03/20 06:45:42;;;;;;;9.90;6.23;;;-1.70;1.00;;;;;;4877212;28;20618;-84
2021/03/20 06:48:11;;;;;;;15.30;8.47;;;-1.70;1.00;;;;;;4874340;28;20654;-82
2021/03/20 06:50:38;;;;;;;8.60;5.20;;;-1.60;1.00;;;;;;4847066;28;21073;-75
2021/03/20 06:53:03;;;;;;;7.67;5.00;;;-1.60;1.00;;;;;;4862385;28;20987;-82
2021/03/20 06:55:28;;;;;;;8.97;4.90;;;-1.40;1.00;;;;;;4872972;28;21125;-82
2021/03/20 06:57:51;;;;;;;8.77;4.67;;;-1.30;1.00;;;;;;4857391;28;20661;-83
2021/03/20 07:00:22;;;;;;;7.17;4.07;;;-1.10;1.00;;;;;;4875930;28;20619;-83
2021/03/20 07:02:57;;;;;;;9.27;4.77;;;-1.00;1.00;;;;;;4863726;28;20658;-83
2021/03/20 07:05:25;;;;;;;11.40;5.27;;;-0.70;1.00;;;;;;4857881;28;20630;-83
2021/03/20 07:08:09;;;;;;;7.50;4.70;;;-0.40;1.00;;;;;;4873698;28;20640;-75
2021/03/20 07:10:44;;;;;;;7.80;4.93;;;-0.10;1.00;;;;;;4855619;28;20650;-81
2021/03/20 07:13:10;;;;;;;9.57;5.60;;;0.30;1.00;;;;;;4857046;28;20615;-82
2021/03/20 07:15:32;;;;;;;7.33;4.70;;;0.50;1.00;;;;;;4856921;28;21175;-81
2021/03/20 07:17:54;;;;;;;6.63;4.10;;;0.70;1.00;;;;;;4823950;28;20717;-82
2021/03/20 07:20:21;;;;;;;7.50;4.60;;;0.80;1.00;;;;;;4867928;28;20692;-81
2021/03/20 07:22:46;;;;;;;8.30;5.47;;;1.00;1.00;;;;;;4868356;28;21056;-82
2021/03/20 07:25:27;;;;;;;7.03;4.63;;;1.20;1.00;;;;;;4823508;28;20295;-81
2021/03/20 07:27:52;;;;;;;8.10;4.80;;;1.30;1.00;;;;;;4862031;28;20634;-81
2021/03/20 07:30:33;;;;;;;7.10;4.43;;;1.50;1.00;;;;;;4871832;28;20182;-80
2021/03/20 07:32:55;;;;;;;7.23;4.70;;;1.60;1.00;;;;;;4874543;28;20202;-84
2021/03/20 07:35:30;;;;;;;6.23;4.33;;;1.70;1.00;;;;;;4838464;28;21287;-83
2021/03/20 07:37:53;;;;;;;5.27;3.63;;;1.80;1.00;;;;;;4858766;28;20201;-80
2021/03/20 07:40:30;;;;;;;6.03;3.33;;;1.80;1.00;;;;;;4863652;28;20209;-76
2021/03/20 07:43:10;;;;;;;4.80;3.63;;;1.80;1.00;;;;;;4839641;28;20237;-80
2021/03/20 07:45:33;;;;;;;7.10;3.90;;;1.70;1.00;;;;;;4850765;28;20193;-76
2021/03/20 07:48:04;;;;;;;4.63;3.53;;;1.60;1.00;;;;;;4874305;28;20181;-78
2021/03/20 07:50:29;;;;;;;6.50;4.20;;;1.50;1.00;;;;;;4869873;28;20224;-78
2021/03/20 07:53:09;;;;;;;6.43;4.83;;;1.50;1.00;;;;;;4871310;28;20189;-77
2021/03/20 07:55:49;;;;;;;6.70;3.70;;;1.30;1.00;;;;;;4873828;28;20193;-82
2021/03/20 07:58:19;;;;;;;6.37;3.93;;;1.20;1.00;;;;;;4851020;28;20201;-81
2021/03/20 08:00:47;;;;;;;6.83;4.30;;;1.00;1.00;;;;;;4839391;28;20710;-81
2021/03/20 08:03:16;;;;;;;6.10;4.43;;;0.90;1.00;;;;;;4855514;28;20701;-76
2021/03/20 08:05:39;;;;;;;6.17;3.93;;;0.80;1.00;;;;;;4828217;28;20198;-79
2021/03/20 08:08:20;;;;;;;6.70;4.03;;;1.00;1.00;;;;;;4873500;28;20201;-78
2021/03/20 08:10:45;;;;;;;5.27;3.53;;;1.50;1.00;;;;;;4854392;28;20668;-77
2021/03/20 08:13:26;;;;;;;6.20;3.47;;;1.90;1.00;;;;;;4859236;28;21018;-74
2021/03/20 08:15:52;;;;;;;3.90;3.20;;;2.10;1.00;;;;;;4860477;28;20630;-80
2021/03/20 08:18:21;;;;;;;6.80;4.23;;;2.10;1.00;;;;;;4859483;28;20205;-78
2021/03/20 08:20:56;;;;;;;4.37;3.27;;;2.40;1.00;;;;;;4857244;28;20595;-80
2021/03/20 08:23:47;;;;;;;6.47;3.57;;;2.60;99.90;;;;;;4860964;28;20771;-77
2021/03/20 08:26:23;;;;;;;4.13;2.90;;;2.80;99.90;;;;;;4855691;28;20198;-75
2021/03/20 08:28:57;;;;;;;3.67;2.03;;;2.90;99.90;;;;;;4856383;28;20702;-83
2021/03/20 08:31:49;;;;;;;3.70;2.67;;;3.20;99.90;;;;;;4856434;28;20186;-75
2021/03/20 08:34:22;;;;;;;4.93;2.53;;;3.50;99.90;;;;;;4857808;28;20228;-76
2021/03/20 08:36:58;;;;;;;5.40;2.77;;;3.40;99.90;;;;;;4838325;28;20241;-75
2021/03/20 08:39:37;;;;;;;2.60;2.10;;;3.60;99.90;;;;;;4861510;28;20185;-82
2021/03/20 08:42:10;;;;;;;4.57;2.70;;;3.70;99.90;;;;;;4872301;28;20229;-75
2021/03/20 08:44:51;;;;;;;4.80;2.83;;;3.60;99.90;;;;;;4855277;28;20210;-79
2021/03/20 08:47:33;;;;;;;4.00;2.57;;;3.60;99.90;;;;;;4840270;28;20212;-78
2021/03/20 08:50:16;;;;;;;2.23;1.90;;;3.70;99.90;;;;;;4855446;28;20217;-79
2021/03/20 08:52:44;;;;;;;3.27;2.43;;;4.20;99.90;;;;;;4856442;28;20186;-77
2021/03/20 08:55:29;;;;;;;2.93;2.10;;;4.70;99.90;;;;;;4867316;28;20186;-80
2021/03/20 08:57:58;;;;;;;3.83;2.43;;;5.30;99.90;;;;;;4859555;28;20224;-73
2021/03/20 09:00:26;;;;;;;2.63;2.20;;;5.80;99.90;;;;;;4861422;28;20193;-73
2021/03/20 09:02:51;;;;;;;3.37;2.30;;;6.20;99.90;;;;;;4837945;28;20207;-74
2021/03/20 09:05:30;;;;;;;2.53;2.10;;;6.80;99.90;;;;;;4855872;28;20516;-73
2021/03/20 09:07:56;;;;;;;3.07;2.50;;;7.50;99.90;;;;;;4870763;28;20177;-77
2021/03/20 09:10:24;;;;;;;2.33;2.03;;;7.80;99.90;;;;;;4871774;28;20186;-74
2021/03/20 09:12:50;;;;;;;3.57;2.30;;;7.70;99.90;;;;;;4861106;28;20202;-73
2021/03/20 09:15:20;;;;;;;2.50;2.30;;;7.50;99.90;;;;;;4856408;28;20223;-74
2021/03/20 09:17:45;;;;;;;3.37;2.73;;;8.40;99.90;;;;;;4871221;28;20243;-80
2021/03/20 09:20:26;;;;;;;2.90;2.30;;;10.30;99.90;;;;;;4838508;28;20617;-80
2021/03/20 09:22:49;;;;;;;1.90;1.80;;;12.40;99.90;;;;;;4866530;28;20237;-77
2021/03/20 09:25:18;;;;;;;3.20;1.47;;;14.30;99.90;;;;;;4870393;28;20224;-76
2021/03/20 09:28:00;;;;;;;1.30;1.20;;;16.10;99.90;;;;;;4868184;28;20236;-74
2021/03/20 09:30:30;;;;;;;0.80;0.80;;;18.10;99.90;;;;;;4876289;28;20198;-75
2021/03/20 09:32:52;;;;;;;0.77;0.77;;;19.80;99.90;;;;;;4875371;28;20629;-73
2021/03/20 09:35:24;;;;;;;0.40;0.40;;;21.50;99.90;;;;;;4874909;28;20975;-75
2021/03/20 09:37:52;;;;;;;0.30;0.30;;;23.00;99.90;;;;;;4876998;28;20279;-82
2021/03/20 09:40:37;;;;;;;0.30;0.30;;;22.50;99.90;;;;;;4875965;28;20235;-78
2021/03/20 09:43:30;;;;;;;0.30;0.30;;;21.30;99.90;;;;;;4860413;28;20174;-80
2021/03/20 09:46:30;;;;;;;0.30;0.30;;;22.30;99.90;;;;;;4855993;28;20830;-76
2021/03/20 09:48:54;;;;;;;0.30;0.30;;;22.30;99.90;;;;;;4859198;28;20190;-74
2021/03/20 09:51:54;;;;;;;0.20;0.20;;;20.70;99.90;;;;;;4873506;28;20225;-72
2021/03/20 09:54:41;;;;;;;0.47;0.40;;;18.60;99.90;;;;;;4858868;28;20326;-74
2021/03/20 09:57:37;;;;;;;0.43;0.43;;;16.20;99.90;;;;;;4857084;28;20236;-80
2021/03/20 09:59:59;;;;;;;0.60;0.60;;;14.30;99.90;;;;;;4857351;28;20660;-74
2021/03/20 10:02:46;;;;;;;0.70;0.70;;;12.60;99.90;;;;;;4873679;28;20240;-78
2021/03/20 10:05:28;;;;;;;0.90;0.90;;;11.10;99.90;;;;;;4858890;28;20606;-79
2021/03/20 10:07:58;;;;;;;1.57;1.47;;;9.70;99.90;;;;;;4844682;28;20194;-81
2021/03/20 10:10:43;;;;;;;1.73;1.37;;;8.60;99.90;;;;;;4859188;28;20213;-73
2021/03/20 10:13:13;;;;;;;1.83;1.73;;;7.70;99.90;;;;;;4872990;28;20205;-73
2021/03/20 10:15:37;;;;;;;2.50;1.63;;;8.20;99.90;;;;;;4840541;28;20221;-73
2021/03/20 10:18:22;;;;;;;1.37;1.27;;;11.30;99.90;;;;;;4856580;28;20230;-79
2021/03/20 10:20:48;;;;;;;0.73;0.73;;;14.80;99.90;;;;;;4865342;28;20220;-83
2021/03/20 10:23:17;;;;;;;0.37;0.37;;;17.90;99.90;;;;;;4865787;28;20588;-74
2021/03/20 10:25:44;;;;;;;0.20;0.20;;;20.50;99.90;;;;;;4846716;28;20688;-77
2021/03/20 10:28:06;;;;;;;0.20;0.20;;;22.50;99.90;;;;;;4842681;28;20199;-74
2021/03/20 10:30:32;;;;;;;0.20;0.20;;;23.20;99.90;;;;;;4861946;28;20225;-77
2021/03/20 10:32:59;;;;;;;0.20;0.20;;;22.30;99.90;;;;;;4873251;28;20209;-79
2021/03/20 10:35:21;;;;;;;0.20;0.20;;;20.80;99.90;;;;;;4871528;28;20226;-84
2021/03/20 10:37:44;;;;;;;0.20;0.20;;;18.90;99.90;;;;;;4869510;28;20228;-84
2021/03/20 10:40:09;;;;;;;0.20;0.20;;;17.10;99.90;;;;;;4871832;28;20197;-80
2021/03/20 10:42:34;;;;;;;0.30;0.30;;;15.40;99.90;;;;;;4876654;28;20212;-81
2021/03/20 10:45:00;;;;;;;0.40;0.40;;;14.20;99.90;;;;;;4875297;28;20302;-82
2021/03/20 10:47:28;;;;;;;0.80;0.80;;;13.20;99.90;;;;;;4859749;28;20615;-77
2021/03/20 10:49:54;;;;;;;1.53;1.43;;;12.30;99.90;;;;;;4858281;28;20193;-79
2021/03/20 10:52:19;;;;;;;1.60;1.50;;;11.40;99.90;;;;;;4875830;28;20244;-79
2021/03/20 10:54:44;;;;;;;2.00;1.83;;;10.60;99.90;;;;;;4895739;28;20204;-79
2021/03/20 10:57:10;;;;;;;1.50;1.40;;;9.90;99.90;;;;;;4877057;28;20217;-79
2021/03/20 10:59:35;;;;;;;1.37;1.27;;;9.40;99.90;;;;;;4874612;28;20206;-78
2021/03/20 11:01:58;;;;;;;0.80;0.80;;;9.30;99.90;;;;;;4891005;28;20238;-73
2021/03/20 11:04:31;;;;;;;1.17;1.10;;;9.50;99.90;;;;;;4896349;28;20181;-75
2021/03/20 11:06:55;;;;;;;1.20;1.10;;;10.30;99.90;;;;;;4877555;28;20218;-77
2021/03/20 11:09:21;;;;;;;1.23;1.13;;;11.70;99.90;;;;;;4884944;28;20539;-75
2021/03/20 11:11:44;;;;;;;1.00;1.00;;;12.40;99.90;;;;;;4878315;28;20216;-77
2021/03/20 11:14:10;;;;;;;1.10;1.00;;;12.60;99.90;;;;;;4888049;28;20610;-80
2021/03/20 11:16:33;;;;;;;1.60;1.27;;;12.50;99.90;;;;;;4895668;28;20238;-80
2021/03/20 11:18:57;;;;;;;1.63;1.53;;;12.20;99.90;;;;;;4876169;28;20259;-74
2021/03/20 11:21:23;;;;;;;1.20;1.10;;;12.10;99.90;;;;;;4875404;28;20197;-79
2021/03/20 11:23:54;;;;;;;1.00;1.00;;;12.10;99.90;;;;;;4872162;28;20650;-80
2021/03/20 11:26:34;;;;;;;0.87;0.87;;;12.30;99.90;;;;;;4858271;28;20387;-80
2021/03/20 11:29:00;;;;;;;0.63;0.63;;;13.30;99.90;;;;;;4889846;28;20705;-80
2021/03/20 11:31:23;;;;;;;0.90;0.90;;;13.80;99.90;;;;;;4862942;28;20251;-81
2021/03/20 11:33:45;;;;;;;0.60;0.60;;;13.90;99.90;;;;;;4881321;28;20279;-80
2021/03/20 11:36:11;;;;;;;0.67;0.67;;;13.80;99.90;;;;;;4858627;28;20632;-78
2021/03/20 11:38:35;;;;;;;0.67;0.67;;;13.90;99.90;;;;;;4866899;28;20213;-77
2021/03/20 11:41:16;;;;;;;0.60;0.60;;;14.10;99.90;;;;;;4884394;28;20242;-79
2021/03/20 11:43:43;;;;;;;0.40;0.40;;;15.40;99.90;;;;;;4877010;28;20592;-79
2021/03/20 11:46:10;;;;;;;0.30;0.30;;;18.00;99.90;;;;;;4863041;28;20252;-80
2021/03/20 11:48:36;;;;;;;0.27;0.27;;;20.80;99.90;;;;;;4869906;28;20203;-80
2021/03/20 11:51:01;;;;;;;0.20;0.20;;;23.50;99.90;;;;;;4862803;28;20231;-82
2021/03/20 11:53:26;;;;;;;0.20;0.20;;;26.50;99.90;;;;;;4858127;28;20198;-82
2021/03/20 11:55:48;;;;;;;0.20;0.20;;;28.10;99.90;;;;;;4873823;28;20190;-85
2021/03/20 11:58:22;;;;;;;0.20;0.20;;;27.10;99.90;;;;;;4842222;28;20723;-81
2021/03/20 12:00:45;;;;;;;0.20;0.20;;;25.70;99.90;;;;;;4874429;28;20242;-78
2021/03/20 12:03:31;;;;;;;0.20;0.20;;;23.50;99.90;;;;;;4875621;28;20184;-84
2021/03/20 12:06:12;;;;;;;0.20;0.20;;;21.10;99.90;;;;;;4857853;28;20231;-83
2021/03/20 12:08:39;;;;;;;0.10;0.10;;;19.20;99.90;;;;;;4877486;28;20641;-85
2021/03/20 12:11:04;;;;;;;0.20;0.20;;;17.30;99.90;;;;;;4876853;28;20205;-81
2021/03/20 12:13:48;;;;;;;0.53;0.30;;;15.70;99.90;;;;;;4895101;28;20235;-86
2021/03/20 12:16:31;;;;;;;0.30;0.30;;;14.20;99.90;;;;;;4875415;28;20181;-80
2021/03/20 12:19:20;;;;;;;0.50;0.50;;;13.00;99.90;;;;;;4867605;28;20265;-81
2021/03/20 12:21:58;;;;;;;1.30;0.70;;;12.00;99.90;;;;;;4880944;28;20537;-83
2021/03/20 12:24:24;;;;;;;0.63;0.63;;;11.10;99.90;;;;;;4851096;28;20706;-86
2021/03/20 12:26:46;;;;;;;1.67;1.57;;;10.50;99.90;;;;;;4843723;28;20187;-76
2021/03/20 12:29:21;;;;;;;1.53;1.43;;;10.00;99.90;;;;;;4875275;28;20275;-80
2021/03/20 12:31:44;;;;;;;1.50;1.40;;;9.70;99.90;;;;;;4876904;28;20215;-79
2021/03/20 12:34:27;;;;;;;1.50;1.33;;;9.40;99.90;;;;;;4875677;28;20209;-77
2021/03/20 12:36:51;;;;;;;1.27;1.27;;;9.20;99.90;;;;;;4856213;28;20209;-78
2021/03/20 12:39:15;;;;;;;1.10;1.10;;;9.30;99.90;;;;;;4870233;28;20256;-83
2021/03/20 12:41:40;;;;;;;1.40;1.30;;;9.30;99.90;;;;;;4859745;28;20197;-78
2021/03/20 12:44:09;;;;;;;1.63;1.53;;;9.30;99.90;;;;;;4853917;28;20241;-78
2021/03/20 12:46:31;;;;;;;1.53;1.43;;;9.50;99.90;;;;;;4856940;28;20205;-83
2021/03/20 12:48:54;;;;;;;1.50;1.40;;;9.80;99.90;;;;;;4875105;28;20182;-78
2021/03/20 12:51:20;;;;;;;1.60;1.50;;;10.00;99.90;;;;;;4889479;28;20242;-84
2021/03/20 12:53:42;;;;;;;1.77;1.67;;;10.10;99.90;;;;;;4892640;28;20258;-80
2021/03/20 12:56:04;;;;;;;1.20;1.20;;;10.00;99.90;;;;;;4861600;28;20198;-80
2021/03/20 12:58:26;;;;;;;1.70;1.50;;;9.80;99.90;;;;;;4894930;28;20185;-82
2021/03/20 13:00:48;;;;;;;1.20;1.20;;;9.60;99.90;;;;;;4858027;28;20194;-81
2021/03/20 13:03:10;;;;;;;1.50;1.40;;;9.30;99.90;;;;;;4875773;28;20174;-81
2021/03/20 13:05:36;;;;;;;2.00;1.90;;;9.20;99.90;;;;;;4861399;28;20269;-82